Wewahitchka, FL (32465)

2:05 PM CDT on July 06, 2015 (GMT -0500)
Chipola River @ Land's Landing | | Change Station
CLOSE
Current Station
Personal Weather Station
Location: Wewahitchka, FL
Elevation: 23 ft
Nearby Weather Stations

Elev 23 ft 30.10 °N, 85.19 °W | Updated 9 minutes ago

Overcast
Overcast
83.1 °F
Feels Like 90 °F
N
3.7
Wind Variable Wind from SW

Today
High -- | Low -- °F
--% Chance of Precip.
Yesterday
High -- | Low -- °F
Precip. -- in
5:45 AM 7:45 PM
Waning Gibbous, 73% visible
Pressure 30.18 in
Visibility 10.0 miles
Clouds Clear
Heat Index 90 °F
Dew Point 74 °F
Humidity 74%
Rainfall 0.10 in
Snow Depth Not available.
UV 13 out of 12
Pollen 2.90 out of 12
Air Quality Not available.
Flu Activity Not available.
METAR KTDR 061856Z AUTO 24007KT 10SM CLR 28/24 A3017 RMK AO2 LTG DSNT NE SHRAE33 SLP220 T02760238 TSNO $

More Conditions Fewer Conditions

Pressure 30.18 in
Visibility 10.0 miles
Clouds Clear
Heat Index 90 °F
Dew Point 74 °F
Humidity 74%
Rainfall 0.10 in
Snow Depth Not available.
UV 13 out of 12
Pollen 2.90 out of 12
Air Quality Not available.
Flu Activity Not available.
METAR KTDR 061856Z AUTO 24007KT 10SM CLR 28/24 A3017 RMK AO2 LTG DSNT NE SHRAE33 SLP220 T02760238 TSNO $

More Conditions Fewer Conditions

10-Day Weather Forecast

×

Almanac

Astronomy

Jul. 06, 2015 Rise Set
Actual Time
Civil Twilight
Nautical Twilight
Astronomical Twilight
Moon
Length of Visible Light
Length of Day
Tomorrow will be .
, % of the Moon is Illuminated

Today's Extremes

State Highs State Lows

Community

WunderPhotos

Upload Photos

1,835,616 photos uploaded!

WunderBlogs® & News

Nearby

Air Quality

  Air Quality AQ Index Pollutant
Not available.

Snow Depth

Station Depth Elevation

Earthquake Activity

City Distance Mag. Time & Date
Minimum magnitude displayed is 2.5.

Coastal Water Temperatures

Place Temperature

Stations

Nearby Weather Stations

Station Location Temp. Windchill Dew Point Humidity Wind Precip. Elev Updated Type